Time;durP1;ratioP1;P1;durP2;ratioP2;P2;SDS_P1;SDS_P2;PMS_P1;PMS_P2;Temp;Humidity;BMP_temperature;BMP_pressure;BME280_temperature;BME280_humidity;BME280_pressure;Samples;Min_cycle;Max_cycle;Signal;HPM_P1;HPM_P2
2022/05/05 00:00:06;;;;;;;4.85;4.45;;;;;;;;;;5053896;28;20032;-73
2022/05/05 00:02:32;;;;;;;4.80;4.40;;;;;;;;;;5053848;28;20504;-72
2022/05/05 00:04:58;;;;;;;5.60;4.15;;;;;;;;;;5053754;28;20109;-72
2022/05/05 00:07:23;;;;;;;4.55;4.22;;;;;;;;;;5053681;28;20035;-71
2022/05/05 00:09:48;;;;;;;5.47;4.65;;;;;;;;;;5053641;28;20032;-71
2022/05/05 00:14:58;;;;;;;4.35;3.80;;;;;;;;;;5053674;28;20121;-72
2022/05/05 00:17:25;;;;;;;4.77;4.30;;;;;;;;;;5053652;28;20024;-72
2022/05/05 00:19:50;;;;;;;5.18;4.10;;;;;;;;;;5035695;28;20327;-72
2022/05/05 00:22:15;;;;;;;4.80;4.40;;;;;;;;;;5053609;28;20057;-73
2022/05/05 00:24:41;;;;;;;4.53;4.13;;;;;;;;;;5053467;28;20064;-73
2022/05/05 00:27:07;;;;;;;4.65;4.28;;;;;;;;;;5053783;28;20017;-73
2022/05/05 00:29:33;;;;;;;5.57;4.07;;;;;;;;;;5053446;28;20025;-73
2022/05/05 00:31:58;;;;;;;4.57;4.18;;;;;;;;;;5053486;28;20031;-73
2022/05/05 00:34:24;;;;;;;5.53;4.38;;;;;;;;;;5053041;28;20075;-73
2022/05/05 00:36:50;;;;;;;4.30;3.92;;;;;;;;;;5053436;28;20032;-73
2022/05/05 00:39:15;;;;;;;4.50;4.03;;;;;;;;;;5053530;28;20033;-72
2022/05/05 00:41:43;;;;;;;4.28;3.83;;;;;;;;;;5053241;28;20385;-72
2022/05/05 00:44:10;;;;;;;5.47;4.50;;;;;;;;;;5053286;28;20091;-72
2022/05/05 00:46:35;;;;;;;4.60;4.20;;;;;;;;;;5053376;28;20021;-72
2022/05/05 00:49:01;;;;;;;7.45;4.35;;;;;;;;;;5053582;28;20512;-72
2022/05/05 00:51:27;;;;;;;4.32;3.92;;;;;;;;;;5053389;28;20021;-72
2022/05/05 00:53:52;;;;;;;6.80;4.13;;;;;;;;;;5054440;28;20032;-72
2022/05/05 00:56:18;;;;;;;4.82;3.88;;;;;;;;;;5039125;28;20020;-72
2022/05/05 00:58:43;;;;;;;5.10;4.45;;;;;;;;;;5056869;28;20064;-72
2022/05/05 01:01:09;;;;;;;6.78;4.80;;;;;;;;;;5056776;28;20047;-72
2022/05/05 01:03:35;;;;;;;5.95;4.38;;;;;;;;;;5056740;28;20025;-72
2022/05/05 01:06:04;;;;;;;5.18;4.40;;;;;;;;;;5056894;28;20009;-75
2022/05/05 01:08:29;;;;;;;6.10;4.75;;;;;;;;;;5056856;28;20025;-75
2022/05/05 01:10:55;;;;;;;6.40;4.50;;;;;;;;;;5056491;28;20381;-75
2022/05/05 01:13:20;;;;;;;4.13;3.72;;;;;;;;;;5056377;28;20021;-74
2022/05/05 01:15:46;;;;;;;4.25;3.95;;;;;;;;;;5056503;28;20485;-74
2022/05/05 01:18:11;;;;;;;6.05;4.93;;;;;;;;;;5056648;28;20365;-74
2022/05/05 01:20:48;;;;;;;5.85;4.80;;;;;;;;;;5056785;28;20079;-72
2022/05/05 01:23:15;;;;;;;5.60;4.82;;;;;;;;;;5056370;28;20108;-72
2022/05/05 01:28:25;;;;;;;6.00;5.10;;;;;;;;;;5056453;28;20104;-72
2022/05/05 01:30:51;;;;;;;6.13;4.97;;;;;;;;;;5056425;28;20055;-72
2022/05/05 01:33:18;;;;;;;6.82;5.07;;;;;;;;;;5056557;28;20037;-72
2022/05/05 01:35:44;;;;;;;5.80;5.20;;;;;;;;;;5038626;28;20420;-72
2022/05/05 01:38:14;;;;;;;8.93;6.50;;;;;;;;;;5056489;28;20435;-72
2022/05/05 01:40:41;;;;;;;8.90;6.60;;;;;;;;;;5056004;28;20041;-72
2022/05/05 01:43:07;;;;;;;7.15;6.45;;;;;;;;;;5056240;28;20476;-72
2022/05/05 01:45:32;;;;;;;8.38;6.55;;;;;;;;;;5056036;28;20071;-72
2022/05/05 01:47:58;;;;;;;11.05;6.72;;;;;;;;;;5056447;28;20090;-72
2022/05/05 01:50:25;;;;;;;10.07;6.20;;;;;;;;;;5056165;28;20025;-72
2022/05/05 01:52:51;;;;;;;7.65;6.32;;;;;;;;;;5055871;28;20041;-72
2022/05/05 01:55:16;;;;;;;6.30;5.70;;;;;;;;;;5055876;28;20025;-73
2022/05/05 01:57:42;;;;;;;9.07;6.30;;;;;;;;;;5056012;28;20041;-72
2022/05/05 02:00:07;;;;;;;8.32;6.05;;;;;;;;;;5055688;28;20024;-75
2022/05/05 02:02:42;;;;;;;8.20;6.07;;;;;;;;;;5056044;28;20021;-73
2022/05/05 02:05:10;;;;;;;7.22;5.57;;;;;;;;;;5054687;28;20492;-72
2022/05/05 02:07:35;;;;;;;8.60;5.53;;;;;;;;;;5055692;28;20021;-72
2022/05/05 02:10:02;;;;;;;8.07;5.60;;;;;;;;;;5055187;28;20035;-72
2022/05/05 02:12:28;;;;;;;4.97;4.57;;;;;;;;;;5055349;28;20127;-72
2022/05/05 02:14:54;;;;;;;6.90;5.00;;;;;;;;;;5055508;28;20033;-71
2022/05/05 02:17:19;;;;;;;5.10;4.43;;;;;;;;;;5055453;28;20108;-71
2022/05/05 02:19:44;;;;;;;5.00;4.45;;;;;;;;;;5054936;28;20064;-72
2022/05/05 02:22:11;;;;;;;5.00;4.50;;;;;;;;;;5055180;28;20017;-72
2022/05/05 02:24:36;;;;;;;5.13;4.55;;;;;;;;;;5055483;28;20120;-72
2022/05/05 02:27:01;;;;;;;5.72;4.60;;;;;;;;;;5055151;28;20465;-72
2022/05/05 02:29:27;;;;;;;5.38;4.85;;;;;;;;;;5055109;28;20032;-71
2022/05/05 02:31:52;;;;;;;5.90;4.75;;;;;;;;;;5037376;28;20028;-72
2022/05/05 02:34:18;;;;;;;5.70;4.88;;;;;;;;;;5055242;28;20043;-76
2022/05/05 02:39:27;;;;;;;4.53;4.13;;;;;;;;;;5055129;28;20079;-72
2022/05/05 02:41:55;;;;;;;5.87;4.40;;;;;;;;;;5054801;28;20017;-72
2022/05/05 02:44:20;;;;;;;5.07;4.63;;;;;;;;;;5054595;28;20272;-71
2022/05/05 02:46:45;;;;;;;4.78;4.30;;;;;;;;;;5055134;28;20078;-71
2022/05/05 02:49:13;;;;;;;5.03;4.50;;;;;;;;;;5037056;28;20082;-72
2022/05/05 02:51:38;;;;;;;4.82;4.38;;;;;;;;;;5055088;28;20028;-72
2022/05/05 02:56:48;;;;;;;5.00;4.60;;;;;;;;;;5054638;28;20081;-72
2022/05/05 02:59:13;;;;;;;5.63;4.70;;;;;;;;;;5054802;28;20021;-72
2022/05/05 03:01:39;;;;;;;4.65;4.20;;;;;;;;;;5054028;28;20055;-72
2022/05/05 03:04:04;;;;;;;5.82;4.65;;;;;;;;;;5054013;28;20024;-72
2022/05/05 03:06:29;;;;;;;8.00;4.32;;;;;;;;;;5054113;28;20488;-72
2022/05/05 03:08:55;;;;;;;4.63;4.13;;;;;;;;;;5054087;28;20025;-72
2022/05/05 03:11:20;;;;;;;5.93;4.32;;;;;;;;;;5053552;28;20291;-71
2022/05/05 03:13:45;;;;;;;4.90;4.50;;;;;;;;;;5052746;28;20029;-72
2022/05/05 03:16:11;;;;;;;5.60;4.78;;;;;;;;;;5034773;28;20076;-72
2022/05/05 03:18:40;;;;;;;9.68;4.85;;;;;;;;;;5053546;28;20060;-72
2022/05/05 03:21:08;;;;;;;4.28;3.90;;;;;;;;;;5053273;28;20079;-72
2022/05/05 03:23:33;;;;;;;11.63;5.15;;;;;;;;;;5054106;28;20024;-72
2022/05/05 03:25:59;;;;;;;5.63;4.88;;;;;;;;;;5053885;28;20029;-72
2022/05/05 03:28:24;;;;;;;5.25;4.70;;;;;;;;;;5054274;28;20025;-72
2022/05/05 03:30:50;;;;;;;5.80;5.28;;;;;;;;;;5054140;28;20037;-72
2022/05/05 03:33:15;;;;;;;6.45;5.85;;;;;;;;;;5054139;28;20460;-73
2022/05/05 03:35:40;;;;;;;8.00;5.50;;;;;;;;;;5053950;28;20025;-72
2022/05/05 03:38:06;;;;;;;6.53;5.85;;;;;;;;;;5053616;28;20491;-72
2022/05/05 03:40:31;;;;;;;7.43;5.50;;;;;;;;;;5035996;28;20032;-72
2022/05/05 03:42:57;;;;;;;8.37;6.00;;;;;;;;;;5053518;28;20013;-72
2022/05/05 03:45:23;;;;;;;11.50;9.23;;;;;;;;;;5053815;28;20314;-72
2022/05/05 03:47:49;;;;;;;8.75;7.72;;;;;;;;;;5053548;28;20025;-72
2022/05/05 03:50:14;;;;;;;7.88;6.57;;;;;;;;;;5053548;28;20044;-72
2022/05/05 03:52:40;;;;;;;8.40;6.25;;;;;;;;;;5053418;28;20100;-72
2022/05/05 03:55:05;;;;;;;12.63;5.72;;;;;;;;;;5053380;28;20052;-72
2022/05/05 03:57:31;;;;;;;5.88;5.13;;;;;;;;;;5053428;28;20021;-72
2022/05/05 03:59:56;;;;;;;6.32;5.15;;;;;;;;;;5053271;28;20043;-72
2022/05/05 04:02:21;;;;;;;6.43;4.90;;;;;;;;;;5053310;28;20123;-72
2022/05/05 04:04:47;;;;;;;6.53;5.47;;;;;;;;;;5053351;28;20024;-72
2022/05/05 04:07:12;;;;;;;6.10;5.50;;;;;;;;;;5053296;28;20372;-72
2022/05/05 04:09:37;;;;;;;6.47;5.47;;;;;;;;;;5035506;28;20341;-72
2022/05/05 04:12:03;;;;;;;8.38;6.03;;;;;;;;;;5035199;28;20041;-72
2022/05/05 04:14:28;;;;;;;7.82;5.95;;;;;;;;;;5053285;28;20043;-72
2022/05/05 04:16:54;;;;;;;6.68;4.85;;;;;;;;;;5053350;28;20060;-72
2022/05/05 04:19:19;;;;;;;6.38;5.25;;;;;;;;;;5053061;28;20076;-72
2022/05/05 04:21:44;;;;;;;5.55;5.05;;;;;;;;;;5053277;28;20521;-72
2022/05/05 04:24:10;;;;;;;6.85;5.43;;;;;;;;;;5053143;28;20025;-72
2022/05/05 04:26:35;;;;;;;7.93;5.40;;;;;;;;;;5053250;28;20021;-72
2022/05/05 04:29:01;;;;;;;7.88;5.22;;;;;;;;;;5054571;28;20021;-72
2022/05/05 04:31:27;;;;;;;6.50;5.13;;;;;;;;;;5057016;28;20024;-72
2022/05/05 04:33:53;;;;;;;5.95;4.82;;;;;;;;;;5056911;28;20037;-72
2022/05/05 04:36:18;;;;;;;6.18;5.13;;;;;;;;;;5057119;28;20107;-72
2022/05/05 04:38:44;;;;;;;6.55;4.93;;;;;;;;;;5039012;28;20064;-72
2022/05/05 04:41:09;;;;;;;7.72;4.97;;;;;;;;;;5056764;28;20025;-72
2022/05/05 04:43:35;;;;;;;5.93;5.35;;;;;;;;;;5056808;28;20064;-72
2022/05/05 04:46:00;;;;;;;6.63;5.03;;;;;;;;;;5056743;28;20475;-72
2022/05/05 04:48:25;;;;;;;7.05;5.28;;;;;;;;;;5056739;28;20027;-72
2022/05/05 04:50:50;;;;;;;5.82;5.03;;;;;;;;;;5056707;28;20472;-72
2022/05/05 04:53:16;;;;;;;5.60;4.93;;;;;;;;;;5056571;28;20029;-72
2022/05/05 04:55:41;;;;;;;15.60;6.15;;;;;;;;;;5056726;28;20028;-72
2022/05/05 04:58:07;;;;;;;8.32;6.20;;;;;;;;;;5056488;28;20029;-72
2022/05/05 05:00:33;;;;;;;8.00;5.72;;;;;;;;;;5056434;28;20122;-72
2022/05/05 05:02:58;;;;;;;5.95;5.25;;;;;;;;;;5056437;28;20425;-72
2022/05/05 05:05:24;;;;;;;6.43;5.43;;;;;;;;;;5056442;28;20155;-72
2022/05/05 05:07:49;;;;;;;6.00;5.40;;;;;;;;;;5056288;28;20028;-72
2022/05/05 05:10:14;;;;;;;6.07;4.90;;;;;;;;;;5056272;28;20013;-72
2022/05/05 05:12:40;;;;;;;6.35;5.63;;;;;;;;;;5056309;28;20068;-72
2022/05/05 05:15:06;;;;;;;9.20;5.10;;;;;;;;;;5056329;28;20116;-72
2022/05/05 05:17:31;;;;;;;9.68;5.47;;;;;;;;;;5056201;28;20075;-72
2022/05/05 05:19:57;;;;;;;6.65;5.88;;;;;;;;;;5056166;28;20033;-72
2022/05/05 05:22:22;;;;;;;6.25;5.50;;;;;;;;;;5056193;28;20032;-72
2022/05/05 05:24:47;;;;;;;6.82;5.07;;;;;;;;;;5056062;28;20051;-72
2022/05/05 05:27:13;;;;;;;5.93;5.32;;;;;;;;;;5055939;28;20090;-72
2022/05/05 05:29:38;;;;;;;9.48;5.80;;;;;;;;;;5055956;28;20040;-73
2022/05/05 05:32:04;;;;;;;6.00;5.40;;;;;;;;;;5055903;28;20036;-73
2022/05/05 05:34:29;;;;;;;6.32;5.45;;;;;;;;;;5055975;28;20021;-72
2022/05/05 05:36:55;;;;;;;8.05;5.50;;;;;;;;;;5056040;28;20048;-72
2022/05/05 05:39:21;;;;;;;6.22;5.60;;;;;;;;;;5055658;28;20021;-72
2022/05/05 05:41:46;;;;;;;7.13;5.82;;;;;;;;;;5055668;28;20093;-72
2022/05/05 05:44:11;;;;;;;10.20;5.45;;;;;;;;;;5055617;28;20028;-72
2022/05/05 05:46:37;;;;;;;5.93;5.15;;;;;;;;;;5055588;28;20025;-73
2022/05/05 05:49:02;;;;;;;8.45;5.30;;;;;;;;;;5055583;28;20405;-72
2022/05/05 05:51:28;;;;;;;6.18;5.50;;;;;;;;;;5055486;28;20119;-72
2022/05/05 05:53:54;;;;;;;6.45;5.78;;;;;;;;;;5055441;28;20114;-72
2022/05/05 05:56:19;;;;;;;7.70;6.22;;;;;;;;;;5055450;28;20106;-72
2022/05/05 05:58:44;;;;;;;10.55;8.60;;;;;;;;;;5055377;28;20017;-72
2022/05/05 06:01:10;;;;;;;17.00;10.32;;;;;;;;;;5055226;28;20068;-72
2022/05/05 06:03:53;;;;;;;17.50;11.57;;;;;;;;;;5055320;28;20021;-72
2022/05/05 06:06:19;;;;;;;21.02;12.57;;;;;;;;;;5055209;28;20025;-72
2022/05/05 06:08:45;;;;;;;6.72;5.75;;;;;;;;;;5055195;28;20428;-72
2022/05/05 06:11:11;;;;;;;8.70;6.28;;;;;;;;;;5054950;28;20512;-72
2022/05/05 06:13:36;;;;;;;7.70;6.50;;;;;;;;;;5055100;28;20029;-72
2022/05/05 06:16:04;;;;;;;8.07;5.70;;;;;;;;;;5055056;28;20029;-72
2022/05/05 06:18:30;;;;;;;5.60;4.85;;;;;;;;;;5055063;28;20083;-72
2022/05/05 06:20:55;;;;;;;7.22;5.97;;;;;;;;;;5054867;28;20033;-73
2022/05/05 06:23:21;;;;;;;9.73;7.38;;;;;;;;;;5055060;28;20017;-72
2022/05/05 06:25:46;;;;;;;9.77;6.38;;;;;;;;;;5054858;28;20477;-72
2022/05/05 06:28:11;;;;;;;7.80;6.03;;;;;;;;;;5054901;28;20017;-72
2022/05/05 06:30:37;;;;;;;8.73;6.63;;;;;;;;;;5054745;28;20032;-72
2022/05/05 06:33:02;;;;;;;8.82;6.65;;;;;;;;;;5036926;28;20086;-72
2022/05/05 06:35:28;;;;;;;6.60;5.93;;;;;;;;;;5054830;28;20030;-72
2022/05/05 06:37:53;;;;;;;6.03;5.18;;;;;;;;;;5054640;28;20036;-72
2022/05/05 06:40:19;;;;;;;8.32;6.47;;;;;;;;;;5054489;28;20033;-72
2022/05/05 06:42:44;;;;;;;7.65;6.70;;;;;;;;;;5054542;28;20025;-72
2022/05/05 06:45:09;;;;;;;8.88;6.72;;;;;;;;;;5054552;28;20056;-72
2022/05/05 06:47:35;;;;;;;9.15;6.45;;;;;;;;;;5054420;28;20071;-72
2022/05/05 06:50:00;;;;;;;7.88;6.30;;;;;;;;;;5054360;28;20036;-72
2022/05/05 06:52:26;;;;;;;8.35;6.60;;;;;;;;;;5053902;28;20453;-72
2022/05/05 06:54:51;;;;;;;7.10;6.40;;;;;;;;;;5054367;28;20025;-72
2022/05/05 06:57:17;;;;;;;9.25;6.45;;;;;;;;;;5054460;28;20377;-72
2022/05/05 06:59:42;;;;;;;8.25;6.50;;;;;;;;;;5054103;28;20029;-72
2022/05/05 07:02:07;;;;;;;5.88;5.25;;;;;;;;;;5054431;28;20092;-72
2022/05/05 07:07:17;;;;;;;9.57;6.45;;;;;;;;;;5054002;28;20029;-72
2022/05/05 07:12:28;;;;;;;10.82;7.00;;;;;;;;;;5053772;28;20400;-72
2022/05/05 07:14:53;;;;;;;10.27;6.70;;;;;;;;;;5054079;28;20032;-72
2022/05/05 07:17:19;;;;;;;7.40;5.65;;;;;;;;;;5054001;28;20507;-72
2022/05/05 07:19:45;;;;;;;8.97;6.30;;;;;;;;;;5036166;28;20025;-72
2022/05/05 07:22:10;;;;;;;8.70;6.43;;;;;;;;;;5054029;28;20283;-72
2022/05/05 07:24:35;;;;;;;8.55;6.63;;;;;;;;;;5053797;28;20028;-72
2022/05/05 07:27:02;;;;;;;8.27;6.13;;;;;;;;;;5053754;28;20024;-72
2022/05/05 07:29:27;;;;;;;9.48;6.38;;;;;;;;;;5053758;28;20044;-72
2022/05/05 07:31:52;;;;;;;9.27;5.72;;;;;;;;;;5053728;28;20040;-72
2022/05/05 07:34:20;;;;;;;10.57;5.57;;;;;;;;;;5053791;28;20024;-72
2022/05/05 07:36:46;;;;;;;11.60;6.40;;;;;;;;;;5053710;28;20277;-72
2022/05/05 07:39:12;;;;;;;6.20;5.07;;;;;;;;;;5053698;28;20056;-72
2022/05/05 07:41:37;;;;;;;8.55;5.65;;;;;;;;;;5053668;28;20037;-72
2022/05/05 07:44:05;;;;;;;11.95;7.43;;;;;;;;;;5053707;28;20021;-72
2022/05/05 07:46:32;;;;;;;10.75;6.60;;;;;;;;;;5053641;28;20468;-72
2022/05/05 07:48:57;;;;;;;9.23;6.65;;;;;;;;;;5053467;28;20529;-72
2022/05/05 07:51:22;;;;;;;7.88;5.95;;;;;;;;;;5035620;28;20113;-72
2022/05/05 07:54:34;;;;;;;12.03;8.10;;;;;;;;;;5053507;28;20040;-72
2022/05/05 07:56:33;;;;;;;13.50;8.05;;;;;;;;;;5053314;28;20374;-72
2022/05/05 07:58:59;;;;;;;13.38;7.55;;;;;;;;;;5053469;28;20035;-72
2022/05/05 08:01:24;;;;;;;10.70;5.88;;;;;;;;;;5053244;28;20503;-72
2022/05/05 08:03:49;;;;;;;6.47;5.22;;;;;;;;;;5054718;28;20017;-72
2022/05/05 08:06:15;;;;;;;9.07;7.30;;;;;;;;;;5057549;28;20480;-72
2022/05/05 08:08:40;;;;;;;11.55;8.05;;;;;;;;;;5057410;28;20400;-72
2022/05/05 08:11:05;;;;;;;10.65;8.02;;;;;;;;;;5057199;28;20049;-72
2022/05/05 08:13:32;;;;;;;10.70;6.65;;;;;;;;;;5057369;28;20500;-72
2022/05/05 08:15:57;;;;;;;14.43;7.97;;;;;;;;;;5057343;28;20029;-72
2022/05/05 08:18:22;;;;;;;10.23;6.93;;;;;;;;;;5057278;28;20483;-72
2022/05/05 08:20:48;;;;;;;9.23;6.28;;;;;;;;;;5057140;28;20937;-73
2022/05/05 08:23:14;;;;;;;7.67;6.07;;;;;;;;;;5057211;28;20029;-73
2022/05/05 08:28:29;;;;;;;9.00;6.15;;;;;;;;;;5057082;28;20068;-72
2022/05/05 08:30:58;;;;;;;8.88;6.22;;;;;;;;;;5057042;28;20129;-72
2022/05/05 08:33:27;;;;;;;8.32;6.05;;;;;;;;;;5056994;28;20043;-73
2022/05/05 08:35:52;;;;;;;5.45;4.47;;;;;;;;;;5056948;28;20108;-72
2022/05/05 08:38:18;;;;;;;5.63;4.80;;;;;;;;;;5053901;28;20429;-72
2022/05/05 08:40:43;;;;;;;5.72;5.22;;;;;;;;;;5056794;28;20108;-72
2022/05/05 08:43:09;;;;;;;7.93;5.85;;;;;;;;;;5056766;28;20373;-72
2022/05/05 08:45:35;;;;;;;8.52;5.32;;;;;;;;;;5056729;28;20033;-72
2022/05/05 08:48:05;;;;;;;6.40;5.78;;;;;;;;;;5056679;28;20413;-72
2022/05/05 08:50:32;;;;;;;6.03;5.53;;;;;;;;;;5056654;28;20122;-72
2022/05/05 08:52:58;;;;;;;9.60;5.38;;;;;;;;;;5056879;28;20078;-72
2022/05/05 08:55:25;;;;;;;6.22;5.63;;;;;;;;;;5056557;28;20071;-72
2022/05/05 08:57:50;;;;;;;6.45;5.70;;;;;;;;;;5056613;28;20071;-72
2022/05/05 09:00:16;;;;;;;4.80;4.40;;;;;;;;;;5056373;28;20033;-72
2022/05/05 09:02:42;;;;;;;5.43;4.45;;;;;;;;;;5056568;28;20017;-72
2022/05/05 09:05:08;;;;;;;5.70;4.88;;;;;;;;;;5056381;28;20029;-72
2022/05/05 09:07:47;;;;;;;6.47;5.30;;;;;;;;;;5056367;28;20451;-72
2022/05/05 09:10:13;;;;;;;4.65;4.20;;;;;;;;;;5056208;28;20107;-72
2022/05/05 09:12:38;;;;;;;4.30;4.00;;;;;;;;;;5056358;28;20033;-72
2022/05/05 09:15:08;;;;;;;5.00;4.55;;;;;;;;;;5055824;28;20056;-72
2022/05/05 09:17:35;;;;;;;6.72;4.55;;;;;;;;;;5056265;28;20067;-72
2022/05/05 09:20:01;;;;;;;5.05;4.60;;;;;;;;;;5056039;28;20033;-72
2022/05/05 09:22:27;;;;;;;4.63;3.92;;;;;;;;;;5056167;28;20453;-72
2022/05/05 09:24:56;;;;;;;7.57;4.63;;;;;;;;;;5056026;28;20017;-72
2022/05/05 09:27:21;;;;;;;5.50;5.07;;;;;;;;;;5056144;28;20013;-72
2022/05/05 09:30:01;;;;;;;5.10;4.70;;;;;;;;;;5055972;28;20389;-72
2022/05/05 09:32:27;;;;;;;3.85;3.55;;;;;;;;;;5056199;28;20112;-72
2022/05/05 09:34:57;;;;;;;16.80;5.30;;;;;;;;;;5037932;28;20021;-72
2022/05/05 09:37:22;;;;;;;4.18;3.80;;;;;;;;;;5055805;28;20087;-72
2022/05/05 09:39:52;;;;;;;4.72;4.32;;;;;;;;;;5055696;28;20029;-72
2022/05/05 09:42:32;;;;;;;4.95;4.55;;;;;;;;;;5055721;28;20028;-72
2022/05/05 09:45:10;;;;;;;3.67;3.35;;;;;;;;;;5055753;28;20033;-72
2022/05/05 09:47:36;;;;;;;4.13;3.80;;;;;;;;;;5055630;28;20370;-72
2022/05/05 09:50:01;;;;;;;6.72;4.20;;;;;;;;;;5055533;28;20113;-72
2022/05/05 09:57:56;;;;;;;5.95;4.40;;;;;;;;;;5055416;28;20484;-72
2022/05/05 10:05:40;;;;;;;4.70;4.30;;;;;;;;;;5055284;28;20550;-72
2022/05/05 10:08:06;;;;;;;4.88;4.47;;;;;;;;;;5055230;28;20039;-72
2022/05/05 10:10:32;;;;;;;4.03;3.63;;;;;;;;;;5055147;28;20041;-72
2022/05/05 10:12:58;;;;;;;5.10;4.20;;;;;;;;;;5055293;28;20439;-72
2022/05/05 10:15:24;;;;;;;4.13;3.83;;;;;;;;;;5055110;28;20430;-72
2022/05/05 10:17:50;;;;;;;5.07;4.68;;;;;;;;;;5055026;28;20105;-72
2022/05/05 10:20:16;;;;;;;5.50;5.00;;;;;;;;;;5055007;28;20086;-72
2022/05/05 10:22:54;;;;;;;8.00;5.10;;;;;;;;;;5055057;28;20076;-72
2022/05/05 10:25:22;;;;;;;5.60;4.95;;;;;;;;;;5054908;28;20108;-72
2022/05/05 10:27:48;;;;;;;5.40;4.90;;;;;;;;;;5054044;28;20048;-72
2022/05/05 10:30:15;;;;;;;5.25;4.85;;;;;;;;;;5054858;28;20037;-72
2022/05/05 10:32:40;;;;;;;5.43;5.03;;;;;;;;;;5054898;28;20032;-72
2022/05/05 10:35:12;;;;;;;5.47;5.03;;;;;;;;;;5054723;28;20025;-72
2022/05/05 10:37:38;;;;;;;5.32;4.82;;;;;;;;;;5054788;28;20033;-72
2022/05/05 10:40:06;;;;;;;4.85;4.25;;;;;;;;;;5054637;28;20025;-73
2022/05/05 10:42:40;;;;;;;5.60;5.15;;;;;;;;;;5054625;28;20095;-72
2022/05/05 10:45:10;;;;;;;5.32;4.57;;;;;;;;;;5036683;28;20116;-72
2022/05/05 10:48:01;;;;;;;4.05;3.75;;;;;;;;;;5054790;28;20489;-72
2022/05/05 10:50:26;;;;;;;4.68;4.28;;;;;;;;;;5054485;28;20041;-72
2022/05/05 10:52:52;;;;;;;4.47;4.17;;;;;;;;;;5054461;28;20032;-72
2022/05/05 10:55:22;;;;;;;5.15;4.65;;;;;;;;;;5054319;28;20750;-72
2022/05/05 10:57:48;;;;;;;5.20;4.78;;;;;;;;;;5054335;28;20068;-72
2022/05/05 11:00:20;;;;;;;4.55;4.25;;;;;;;;;;5054231;28;20021;-72
2022/05/05 11:02:57;;;;;;;5.63;5.07;;;;;;;;;;5054254;28;20051;-72
2022/05/05 11:05:27;;;;;;;4.63;4.22;;;;;;;;;;5054146;28;20032;-72
2022/05/05 11:07:53;;;;;;;4.47;4.10;;;;;;;;;;5054125;28;20366;-72
2022/05/05 11:10:37;;;;;;;5.47;4.68;;;;;;;;;;5053934;28;20025;-72
2022/05/05 11:13:03;;;;;;;4.38;3.97;;;;;;;;;;5054074;28;20025;-73
2022/05/05 11:23:56;;;;;;;4.30;3.97;;;;;;;;;;5053828;28;20029;-73
2022/05/05 11:26:21;;;;;;;3.85;3.38;;;;;;;;;;5053817;28;20020;-72
2022/05/05 11:28:48;;;;;;;2.92;2.72;;;;;;;;;;5053791;28;20025;-72
2022/05/05 11:31:31;;;;;;;3.53;3.22;;;;;;;;;;5053718;28;20023;-72
2022/05/05 11:34:00;;;;;;;3.90;3.50;;;;;;;;;;5053923;28;20029;-72
2022/05/05 11:36:33;;;;;;;3.88;3.58;;;;;;;;;;5053679;28;20067;-72
2022/05/05 11:38:59;;;;;;;3.20;3.00;;;;;;;;;;5053456;28;20392;-72
2022/05/05 11:41:26;;;;;;;3.42;3.10;;;;;;;;;;5053516;28;20532;-72
2022/05/05 11:46:37;;;;;;;3.25;3.05;;;;;;;;;;5053777;28;20025;-72
2022/05/05 11:49:02;;;;;;;3.13;3.03;;;;;;;;;;5053501;28;20491;-72
2022/05/05 11:51:30;;;;;;;3.00;2.88;;;;;;;;;;5053453;28;20041;-72
2022/05/05 11:54:04;;;;;;;3.78;3.47;;;;;;;;;;5053454;28;20017;-72
2022/05/05 11:56:29;;;;;;;3.70;3.50;;;;;;;;;;5053531;28;20029;-72
2022/05/05 12:01:41;;;;;;;3.78;3.58;;;;;;;;;;5053318;28;20206;-72
2022/05/05 12:04:12;;;;;;;4.03;3.72;;;;;;;;;;5053440;28;20020;-72
2022/05/05 12:06:39;;;;;;;3.58;3.38;;;;;;;;;;5053356;28;20043;-73
2022/05/05 12:09:06;;;;;;;3.50;3.30;;;;;;;;;;5053366;28;20105;-72
2022/05/05 12:11:31;;;;;;;3.90;3.60;;;;;;;;;;5053107;28;20120;-72
2022/05/05 12:14:06;;;;;;;3.40;3.20;;;;;;;;;;5053264;28;20508;-73
2022/05/05 12:16:34;;;;;;;3.10;2.90;;;;;;;;;;5053239;28;20033;-72
2022/05/05 12:19:00;;;;;;;3.17;2.90;;;;;;;;;;5053173;28;20017;-72
2022/05/05 12:21:26;;;;;;;3.70;3.35;;;;;;;;;;5053217;28;20079;-72
2022/05/05 12:24:01;;;;;;;2.53;2.42;;;;;;;;;;5053302;28;20017;-72
2022/05/05 12:26:28;;;;;;;4.10;3.20;;;;;;;;;;5053137;28;20017;-73
2022/05/05 12:28:53;;;;;;;3.20;3.00;;;;;;;;;;5053148;28;20096;-73
2022/05/05 12:31:22;;;;;;;3.00;2.88;;;;;;;;;;5053130;28;20076;-73
2022/05/05 12:33:48;;;;;;;3.40;3.20;;;;;;;;;;5053068;28;20040;-72
2022/05/05 12:36:14;;;;;;;3.30;3.05;;;;;;;;;;5053067;28;20071;-72
2022/05/05 12:38:39;;;;;;;3.35;3.08;;;;;;;;;;5053019;28;20550;-72
2022/05/05 12:41:06;;;;;;;3.60;3.10;;;;;;;;;;5053013;28;20024;-72
2022/05/05 12:43:32;;;;;;;3.90;3.60;;;;;;;;;;5053020;28;20092;-72
2022/05/05 12:46:00;;;;;;;3.80;2.95;;;;;;;;;;5053013;28;20122;-72
2022/05/05 12:48:27;;;;;;;3.45;3.25;;;;;;;;;;5052954;28;20451;-72
2022/05/05 12:50:53;;;;;;;3.70;3.40;;;;;;;;;;5055753;28;20037;-72
2022/05/05 13:01:38;;;;;;;7.95;3.60;;;;;;;;;;5056612;28;20589;-72
2022/05/05 13:04:06;;;;;;;4.38;3.97;;;;;;;;;;5056442;28;20021;-72
2022/05/05 13:06:35;;;;;;;4.75;4.32;;;;;;;;;;5056480;28;20415;-72
2022/05/05 13:09:01;;;;;;;4.30;3.97;;;;;;;;;;5056443;28;20021;-72
2022/05/05 13:11:27;;;;;;;4.32;4.07;;;;;;;;;;5056282;28;20558;-72
2022/05/05 13:13:52;;;;;;;5.45;4.97;;;;;;;;;;5056306;28;20040;-72
2022/05/05 13:16:19;;;;;;;5.05;4.20;;;;;;;;;;5056275;28;20488;-72
2022/05/05 13:18:44;;;;;;;4.55;4.15;;;;;;;;;;5056228;28;20117;-72
2022/05/05 13:21:10;;;;;;;5.43;4.30;;;;;;;;;;5056032;28;20052;-72
2022/05/05 13:23:35;;;;;;;5.70;4.40;;;;;;;;;;5056201;28;20120;-72
2022/05/05 13:26:01;;;;;;;4.90;4.50;;;;;;;;;;5056168;28;20017;-72
2022/05/05 13:28:27;;;;;;;6.30;4.20;;;;;;;;;;5056257;28;20040;-72
2022/05/05 13:30:52;;;;;;;6.72;4.50;;;;;;;;;;5056085;28;20025;-72
2022/05/05 13:33:17;;;;;;;4.95;4.43;;;;;;;;;;5038006;28;20037;-72
2022/05/05 13:35:43;;;;;;;4.57;4.22;;;;;;;;;;5056004;28;20028;-72
2022/05/05 13:38:09;;;;;;;4.70;4.35;;;;;;;;;;5055833;28;20029;-72
2022/05/05 13:40:34;;;;;;;5.15;4.40;;;;;;;;;;5055714;28;20533;-72
2022/05/05 13:43:01;;;;;;;4.47;4.15;;;;;;;;;;5055713;28;20033;-72
2022/05/05 13:45:27;;;;;;;4.93;4.53;;;;;;;;;;5055675;28;20028;-72
2022/05/05 13:47:53;;;;;;;4.53;4.22;;;;;;;;;;5055684;28;20025;-72
2022/05/05 13:50:19;;;;;;;6.53;4.53;;;;;;;;;;5055592;28;20028;-72
2022/05/05 13:52:44;;;;;;;4.70;4.30;;;;;;;;;;5055536;28;20120;-72
2022/05/05 13:55:10;;;;;;;4.85;4.40;;;;;;;;;;5055491;28;20039;-72
2022/05/05 13:57:37;;;;;;;4.70;4.30;;;;;;;;;;5055502;28;20083;-73
2022/05/05 14:00:03;;;;;;;5.40;4.80;;;;;;;;;;5055333;28;20075;-72
2022/05/05 14:02:36;;;;;;;7.68;4.00;;;;;;;;;;5055623;28;20033;-72
2022/05/05 14:05:02;;;;;;;6.70;4.40;;;;;;;;;;5055731;28;20443;-72
2022/05/05 14:12:56;;;;;;;5.95;4.47;;;;;;;;;;5055180;28;20029;-72
2022/05/05 14:15:22;;;;;;;4.22;3.92;;;;;;;;;;5055113;28;20436;-72
2022/05/05 14:17:47;;;;;;;4.40;4.10;;;;;;;;;;5055147;28;20039;-72
2022/05/05 14:20:13;;;;;;;4.30;4.00;;;;;;;;;;5054937;28;20104;-72
2022/05/05 14:22:40;;;;;;;5.80;3.67;;;;;;;;;;5055072;28;20454;-72
2022/05/05 14:25:10;;;;;;;3.97;3.63;;;;;;;;;;5055011;28;20025;-72
2022/05/05 14:27:35;;;;;;;4.20;3.90;;;;;;;;;;5055042;28;20120;-72
2022/05/05 14:30:02;;;;;;;4.75;4.00;;;;;;;;;;5054847;28;20053;-72
2022/05/05 14:32:28;;;;;;;6.93;4.25;;;;;;;;;;5054861;28;20504;-72
2022/05/05 14:34:54;;;;;;;4.22;3.92;;;;;;;;;;5054862;28;20025;-72
2022/05/05 14:37:19;;;;;;;6.07;5.50;;;;;;;;;;5054817;28;20035;-72
2022/05/05 14:39:45;;;;;;;4.72;4.30;;;;;;;;;;5054548;28;20024;-72
2022/05/05 14:42:10;;;;;;;7.53;5.05;;;;;;;;;;5054738;28;20021;-72
2022/05/05 14:44:35;;;;;;;6.88;4.65;;;;;;;;;;5054559;28;20027;-72
2022/05/05 14:47:01;;;;;;;4.50;4.20;;;;;;;;;;5054517;28;20031;-72
2022/05/05 14:49:26;;;;;;;6.50;5.80;;;;;;;;;;5036662;28;20024;-72
2022/05/05 14:51:52;;;;;;;6.95;4.82;;;;;;;;;;5054489;28;20371;-72
2022/05/05 14:54:17;;;;;;;11.83;6.50;;;;;;;;;;5054419;28;20087;-72
2022/05/05 14:56:42;;;;;;;13.57;6.28;;;;;;;;;;5036701;28;20666;-71
2022/05/05 14:59:08;;;;;;;11.05;7.18;;;;;;;;;;5054325;28;20017;-71
2022/05/05 15:01:33;;;;;;;12.48;6.03;;;;;;;;;;5036492;28;20044;-71
2022/05/05 15:03:59;;;;;;;16.83;7.87;;;;;;;;;;5054417;28;20028;-72
2022/05/05 15:06:24;;;;;;;15.82;6.20;;;;;;;;;;5054146;28;20271;-72
2022/05/05 15:08:49;;;;;;;12.25;6.20;;;;;;;;;;5054110;28;20079;-72
2022/05/05 15:11:15;;;;;;;5.60;4.45;;;;;;;;;;5054022;28;20397;-72
2022/05/05 15:13:40;;;;;;;5.35;4.35;;;;;;;;;;5035644;28;20061;-72
2022/05/05 15:16:06;;;;;;;6.32;4.88;;;;;;;;;;5054113;28;20393;-72
2022/05/05 15:18:31;;;;;;;7.75;5.82;;;;;;;;;;5052790;28;20043;-72
2022/05/05 15:20:56;;;;;;;17.65;14.18;;;;;;;;;;5053761;28;20028;-72
2022/05/05 15:23:22;;;;;;;11.38;10.15;;;;;;;;;;5052874;28;20035;-72
2022/05/05 15:25:48;;;;;;;29.30;18.02;;;;;;;;;;5052369;28;20028;-72
2022/05/05 15:28:14;;;;;;;22.13;15.50;;;;;;;;;;5052498;28;20495;-71
2022/05/05 15:30:39;;;;;;;4.30;3.90;;;;;;;;;;5052948;28;20078;-75
2022/05/05 15:33:05;;;;;;;9.98;7.85;;;;;;;;;;5052279;28;20395;-73